Midway, South Dakota
Current Conditions -  °F | °C
As of 1:55 AM on Saturday 20 Dec 2014 (Local Time) from KYKN Reporting Station
Overcast Overcast  
Wind Chill: 30°   Ceiling: 1200
Heat Index: 34°   Visibility: 8mi
Dew Point: 28°   Wind: 5mph
Humidity: 81%   Direction: 180°S
Pressure: 30.06"   Gusts: NA
Location:  43.1951°N, 97.1515°W
Report Text: KYKN 200755Z AUTO 18004KT 8SM OVC012 01/M02 A3006 RMK AO1
Loading
Personal Weather Stations






























Interactive Weather Map New forecast layout! Learn more

10-Day Weather Forecast

Advertisements
Track Severe Weather on mobile